Airfield :
LOGIN :

Register | Disclaimer

   EN    FR    IT 

 










Legend :    VFR   Marginal VFR   IFR   Intensive IFR   Very Intensive IFR
Visi :
Ceiling :
>= 8 km
>= 3000ft
5 to 8 km
1000 to 3000 ft
1500m to 5 km
500 to 1000 ft
800 to 1500m
200 to 500 ft
< 800m
< 200 ft
Symbols :   Thunderstorms  Fog  Heavy snow  Heavy precipitations  Wind > 20 kt
SIGMETs :     Misc.  Thunderstorms  Icing  Turbulence  Mountain Waves  Volcanic Ashes







- Airport Elevation : 466 ft


LHPA - Pápa

CURRENT METAR :
  • 191345Z 33008KT CAVOK 21/04 Q1028 NOSIG RMK BLU

EXPIRED METARs :
  • 191315Z 31012KT CAVOK 22/06 Q1028 NOSIG RMK BLU
  • 191245Z 32010KT 280V350 CAVOK 21/05 Q1028 NOSIG RMK BLU
  • 191215Z 34008KT 290V050 CAVOK 21/05 Q1029 NOSIG RMK BLU
  • 191145Z 32010KT CAVOK 21/05 Q1029 NOSIG RMK BLU
  • 191115Z 31006KT 230V050 CAVOK 21/06 Q1029 NOSIG RMK BLU

TAF TAF LHPA
Valid from the 19 at 12:00 until the 20 at 12:00 UTC


191115Z 1912/2012 33008KT CAVOK
TEMPO 1912/1916 9999 SCT040
BECMG 1916/1918 30004KT
BECMG 1919/1921 06006KT
BECMG 1923/2001 VRB02KT
TEMPO 2000/2006 8000 NSC
BECMG 2009/2011 35005KT
No reported NOTAMs for that airfield.



MET'MAP, your aeronautical weather chart ! - Copyright ORBIFLY December 2007 - Disclaimer

ORBIFLY MET'MAP TEAM :

Programming & Development : Alexandra Zaïnal
Concept & Development : Baudouin d'Aumeries
Co-Development & Prog : Marc-Olivier Méhu
Technical & hardware support : Manuel Goepfert

Contact : metmap@orbifly.com




SOURCES & CREDITS :

   NOAA